Time;durP1;ratioP1;P1;durP2;ratioP2;P2;SDS_P1;SDS_P2;PMS_P1;PMS_P2;Temp;Humidity;BMP_temperature;BMP_pressure;BME280_temperature;BME280_humidity;BME280_pressure;Samples;Min_cycle;Max_cycle;Signal;HPM_P1;HPM_P2
2022/05/02 00:01:16;;;;;;;3.05;1.42;;;14.90;99.90;;;;;;5072991;28;20067;-74
2022/05/02 00:03:43;;;;;;;5.70;1.60;;;15.00;99.90;;;;;;5072985;28;20028;-76
2022/05/02 00:06:11;;;;;;;5.57;1.70;;;15.00;99.90;;;;;;5070979;28;20028;-77
2022/05/02 00:08:39;;;;;;;6.30;2.00;;;15.10;99.90;;;;;;5070701;28;20020;-74
2022/05/02 00:11:09;;;;;;;4.43;1.48;;;15.10;99.90;;;;;;5070825;28;20021;-76
2022/05/02 00:13:37;;;;;;;8.68;2.17;;;15.20;99.90;;;;;;5067804;28;20059;-76
2022/05/02 00:16:07;;;;;;;6.85;1.65;;;15.20;99.90;;;;;;5071063;28;20044;-77
2022/05/02 00:18:35;;;;;;;7.40;1.55;;;15.30;99.90;;;;;;5070685;28;20377;-76
2022/05/02 00:21:03;;;;;;;7.35;1.60;;;15.30;99.90;;;;;;5071718;28;20537;-76
2022/05/02 00:23:31;;;;;;;11.10;1.90;;;15.40;99.90;;;;;;5072063;28;20020;-75
2022/05/02 00:25:58;;;;;;;4.07;1.30;;;15.50;99.90;;;;;;5070401;28;20032;-77
2022/05/02 00:28:27;;;;;;;6.85;1.50;;;15.60;99.90;;;;;;5073101;28;20077;-76
2022/05/02 00:30:54;;;;;;;3.85;1.08;;;15.60;99.90;;;;;;5070180;28;20028;-74
2022/05/02 00:33:22;;;;;;;6.35;1.67;;;15.70;99.90;;;;;;5072793;28;20489;-76
2022/05/02 00:35:50;;;;;;;4.18;1.65;;;15.70;99.90;;;;;;5072340;28;20089;-76
2022/05/02 00:38:18;;;;;;;6.18;1.90;;;15.70;99.90;;;;;;5072282;28;20021;-76
2022/05/02 00:40:45;;;;;;;10.98;1.48;;;15.80;99.90;;;;;;5072778;28;20067;-76
2022/05/02 00:43:14;;;;;;;6.43;1.45;;;15.80;99.90;;;;;;5072612;28;20089;-77
2022/05/02 00:45:41;;;;;;;8.32;1.88;;;15.90;99.90;;;;;;5072775;28;20566;-74
2022/05/02 00:48:09;;;;;;;3.00;1.38;;;16.00;99.90;;;;;;5068847;28;20025;-76
2022/05/02 00:50:40;;;;;;;4.35;1.40;;;16.10;99.90;;;;;;5075148;28;20031;-72
2022/05/02 00:53:11;;;;;;;5.82;1.77;;;16.20;99.90;;;;;;5077845;28;20016;-74
2022/05/02 00:55:39;;;;;;;7.03;1.98;;;16.30;99.90;;;;;;5066667;28;20041;-74
2022/05/02 00:58:08;;;;;;;11.32;1.10;;;16.40;99.90;;;;;;5065685;28;20017;-73
2022/05/02 01:00:38;;;;;;;4.50;1.45;;;16.40;99.90;;;;;;5058280;28;20029;-74
2022/05/02 01:03:08;;;;;;;12.70;1.77;;;16.40;99.90;;;;;;5068082;28;20112;-76
2022/05/02 01:07:08;;;;;;;3.28;0.93;;;16.50;99.90;;;;;;5069108;28;20048;-74
2022/05/02 01:08:31;;;;;;;5.80;1.20;;;16.60;99.90;;;;;;5077775;28;20121;-75
2022/05/02 01:10:59;;;;;;;5.45;1.45;;;16.70;99.90;;;;;;5074277;28;20020;-74
2022/05/02 01:13:47;;;;;;;6.88;1.70;;;16.60;99.90;;;;;;5071110;28;20101;-74
2022/05/02 01:16:29;;;;;;;4.60;1.10;;;16.70;99.90;;;;;;5070155;28;20051;-73
2022/05/02 01:18:59;;;;;;;6.22;1.35;;;16.60;99.90;;;;;;5074281;28;20059;-74
2022/05/02 01:21:31;;;;;;;3.92;1.20;;;16.70;99.90;;;;;;5074830;28;20020;-74
2022/05/02 01:24:03;;;;;;;6.13;1.45;;;16.80;99.90;;;;;;5075897;28;20013;-72
2022/05/02 01:26:31;;;;;;;4.47;1.58;;;16.80;99.90;;;;;;5073611;28;20055;-72
2022/05/02 01:29:01;;;;;;;9.80;1.48;;;16.90;99.90;;;;;;5075680;28;20020;-72
2022/05/02 01:31:29;;;;;;;8.02;1.70;;;16.90;99.90;;;;;;5076147;28;20025;-73
2022/05/02 01:33:57;;;;;;;7.07;1.98;;;17.00;99.90;;;;;;5076000;28;20036;-72
2022/05/02 01:36:25;;;;;;;3.05;1.40;;;17.10;99.90;;;;;;5076071;28;20040;-72
2022/05/02 01:38:53;;;;;;;5.60;1.48;;;17.10;99.90;;;;;;5075860;28;20021;-72
2022/05/02 01:41:21;;;;;;;10.95;1.63;;;17.20;99.90;;;;;;5076065;28;20029;-71
2022/05/02 01:43:49;;;;;;;5.65;1.17;;;17.20;99.90;;;;;;5076309;28;20082;-72
2022/05/02 01:46:17;;;;;;;8.98;1.73;;;17.20;99.90;;;;;;5075003;28;20044;-72
2022/05/02 01:48:45;;;;;;;2.97;1.20;;;17.20;99.90;;;;;;5075316;28;20067;-73
2022/05/02 01:51:12;;;;;;;4.05;1.38;;;17.30;99.90;;;;;;5075560;28;20044;-73
2022/05/02 01:53:40;;;;;;;4.72;1.00;;;17.30;99.90;;;;;;5074922;28;20370;-73
2022/05/02 01:56:08;;;;;;;7.20;1.58;;;17.30;99.90;;;;;;5071588;28;20434;-73
2022/05/02 01:58:38;;;;;;;5.10;1.08;;;17.30;99.90;;;;;;5067623;28;20151;-74
2022/05/02 02:01:06;;;;;;;2.67;0.85;;;17.40;99.90;;;;;;5070738;28;20020;-74
2022/05/02 02:03:34;;;;;;;3.50;0.88;;;17.40;99.90;;;;;;5073850;28;20377;-74
2022/05/02 02:06:02;;;;;;;10.40;1.27;;;17.40;99.90;;;;;;5073149;28;20024;-74
2022/05/02 02:08:31;;;;;;;5.65;1.20;;;17.50;99.90;;;;;;5073348;28;20020;-73
2022/05/02 02:11:06;;;;;;;9.45;1.38;;;17.70;99.90;;;;;;5071188;28;20021;-74
2022/05/02 02:13:35;;;;;;;9.13;1.52;;;17.80;99.90;;;;;;5073474;28;20029;-74
2022/05/02 02:16:07;;;;;;;4.35;1.27;;;17.80;99.90;;;;;;5073075;28;20033;-74
2022/05/02 02:18:36;;;;;;;3.65;0.80;;;17.80;99.90;;;;;;5071889;28;20034;-73
2022/05/02 02:21:04;;;;;;;7.47;1.70;;;17.90;99.90;;;;;;5073584;28;20016;-74
2022/05/02 02:23:33;;;;;;;9.15;1.45;;;17.90;99.90;;;;;;5073357;28;20021;-74
2022/05/02 02:26:01;;;;;;;4.35;1.70;;;17.90;99.90;;;;;;5072713;28;20421;-74
2022/05/02 02:28:29;;;;;;;9.27;1.38;;;18.00;99.90;;;;;;5074772;28;20098;-74
2022/05/02 02:30:56;;;;;;;6.35;0.93;;;18.00;99.90;;;;;;5075333;28;20070;-73
2022/05/02 02:33:24;;;;;;;6.43;1.23;;;18.00;99.90;;;;;;5074777;28;20115;-75
2022/05/02 02:35:52;;;;;;;4.40;0.93;;;18.00;99.90;;;;;;5073259;28;20040;-74
2022/05/02 02:38:19;;;;;;;7.53;1.05;;;18.10;99.90;;;;;;5074671;28;20426;-73
2022/05/02 02:40:47;;;;;;;4.28;1.08;;;18.10;99.90;;;;;;5074531;28;20025;-74
2022/05/02 02:43:15;;;;;;;4.97;1.10;;;18.10;99.90;;;;;;5074711;28;20489;-73
2022/05/02 02:45:42;;;;;;;2.92;0.88;;;18.10;99.90;;;;;;5074585;28;20040;-73
2022/05/02 02:48:10;;;;;;;4.88;1.63;;;18.20;99.90;;;;;;5074375;28;20016;-73
2022/05/02 02:50:38;;;;;;;10.82;1.15;;;18.30;99.90;;;;;;5074617;28;20069;-73
2022/05/02 02:53:06;;;;;;;4.53;1.05;;;18.30;99.90;;;;;;5074343;28;20027;-73
2022/05/02 02:55:34;;;;;;;3.80;0.85;;;18.40;99.90;;;;;;5074304;28;20134;-73
2022/05/02 02:58:02;;;;;;;3.00;1.40;;;18.40;99.90;;;;;;5071667;28;20082;-72
2022/05/02 03:00:30;;;;;;;4.32;0.88;;;18.40;99.90;;;;;;5074601;28;20504;-73
2022/05/02 03:02:59;;;;;;;5.75;1.27;;;18.50;99.90;;;;;;5074374;28;20047;-73
2022/05/02 03:08:12;;;;;;;2.92;1.35;;;18.60;99.90;;;;;;5075284;28;20481;-74
2022/05/02 03:10:40;;;;;;;2.53;0.70;;;18.50;99.90;;;;;;5074737;28;20032;-74
2022/05/02 03:13:08;;;;;;;5.50;1.20;;;18.40;99.90;;;;;;5074806;28;20017;-73
2022/05/02 03:15:36;;;;;;;1.42;0.77;;;18.50;99.90;;;;;;5074312;28;20115;-73
2022/05/02 03:18:04;;;;;;;1.42;0.70;;;18.60;99.90;;;;;;5073833;28;20017;-74
2022/05/02 03:20:32;;;;;;;4.63;1.30;;;18.60;99.90;;;;;;5072989;28;20032;-73
2022/05/02 03:23:00;;;;;;;8.05;1.33;;;18.60;99.90;;;;;;5072992;28;20039;-73
2022/05/02 03:25:27;;;;;;;6.30;1.15;;;18.60;99.90;;;;;;5070610;28;20025;-73
2022/05/02 03:27:55;;;;;;;6.97;1.17;;;18.60;99.90;;;;;;5070973;28;20036;-73
2022/05/02 03:30:23;;;;;;;3.42;0.60;;;18.60;99.90;;;;;;5070992;28;20082;-73
2022/05/02 03:32:50;;;;;;;3.42;0.95;;;18.70;99.90;;;;;;5071107;28;20050;-73
2022/05/02 03:35:18;;;;;;;4.80;1.05;;;18.60;99.90;;;;;;5070727;28;20051;-73
2022/05/02 03:37:46;;;;;;;3.63;1.08;;;18.70;99.90;;;;;;5070930;28;20050;-73
2022/05/02 03:40:13;;;;;;;5.65;1.33;;;18.70;99.90;;;;;;5070597;28;20016;-74
2022/05/02 03:42:44;;;;;;;15.25;2.08;;;18.80;99.90;;;;;;5070608;28;20385;-73
2022/05/02 03:45:12;;;;;;;12.10;2.00;;;18.70;99.90;;;;;;5070447;28;20039;-73
2022/05/02 03:47:39;;;;;;;3.80;1.23;;;18.70;99.90;;;;;;5070544;28;20032;-73
2022/05/02 03:50:07;;;;;;;2.80;0.98;;;18.70;99.90;;;;;;5070761;28;20017;-73
2022/05/02 03:52:35;;;;;;;5.20;1.23;;;18.60;99.90;;;;;;5071032;28;20408;-73
2022/05/02 03:55:03;;;;;;;7.53;1.73;;;18.70;99.90;;;;;;5071441;28;20120;-73
2022/05/02 03:57:31;;;;;;;4.78;1.00;;;18.80;99.90;;;;;;5073822;28;20025;-73
2022/05/02 03:59:59;;;;;;;13.77;1.27;;;18.90;99.90;;;;;;5073905;28;20436;-73
2022/05/02 04:02:27;;;;;;;2.53;1.08;;;19.00;99.90;;;;;;5073675;28;20024;-73
2022/05/02 04:04:54;;;;;;;3.53;1.38;;;19.00;99.90;;;;;;5073910;28;20513;-73
2022/05/02 04:07:22;;;;;;;4.30;1.25;;;19.00;99.90;;;;;;5073877;28;20024;-73
2022/05/02 04:09:50;;;;;;;3.92;0.80;;;19.00;99.90;;;;;;5073550;28;20035;-74
2022/05/02 04:12:17;;;;;;;4.47;1.30;;;19.00;99.90;;;;;;5073465;28;20390;-74
2022/05/02 04:14:45;;;;;;;3.42;0.90;;;19.10;99.90;;;;;;5073167;28;20119;-74
2022/05/02 04:17:13;;;;;;;4.72;0.80;;;19.00;99.90;;;;;;5073615;28;20106;-74
2022/05/02 04:19:41;;;;;;;2.33;1.00;;;19.00;99.90;;;;;;5073745;28;20021;-74
2022/05/02 04:22:09;;;;;;;7.18;1.23;;;19.00;99.90;;;;;;5073359;28;20028;-73
2022/05/02 04:24:36;;;;;;;2.88;1.23;;;19.10;99.90;;;;;;5073461;28;20028;-73
2022/05/02 04:27:04;;;;;;;3.13;1.05;;;19.10;99.90;;;;;;5071762;28;20031;-72
2022/05/02 04:29:32;;;;;;;3.65;0.93;;;19.10;99.90;;;;;;5073446;28;20021;-73
2022/05/02 04:31:59;;;;;;;2.47;0.75;;;19.10;99.90;;;;;;5073535;28;20028;-73
2022/05/02 04:34:27;;;;;;;2.63;0.70;;;19.00;99.90;;;;;;5072881;28;20048;-73
2022/05/02 04:36:55;;;;;;;2.63;0.95;;;19.00;99.90;;;;;;5073403;28;20040;-73
2022/05/02 04:39:22;;;;;;;4.35;1.25;;;19.00;99.90;;;;;;5073298;28;20033;-74
2022/05/02 04:41:53;;;;;;;2.25;0.90;;;18.90;99.90;;;;;;5072970;28;20035;-74
2022/05/02 04:44:21;;;;;;;1.30;0.70;;;18.90;99.90;;;;;;5073328;28;20024;-74
2022/05/02 04:46:49;;;;;;;5.93;1.35;;;18.90;99.90;;;;;;5073268;28;20036;-74
2022/05/02 04:49:17;;;;;;;4.93;1.45;;;18.80;99.90;;;;;;5073171;28;20016;-74
2022/05/02 04:51:45;;;;;;;1.67;0.63;;;18.80;99.90;;;;;;5075599;28;20067;-74
2022/05/02 04:54:12;;;;;;;4.00;0.95;;;18.80;99.90;;;;;;5077294;28;20017;-74
2022/05/02 04:56:40;;;;;;;6.72;1.42;;;18.80;99.90;;;;;;5077459;28;20029;-74
2022/05/02 04:59:08;;;;;;;3.92;1.13;;;18.90;99.90;;;;;;5077406;28;20025;-73
2022/05/02 05:01:36;;;;;;;5.60;1.45;;;18.90;99.90;;;;;;5077106;28;20405;-73
2022/05/02 05:04:04;;;;;;;4.10;0.75;;;18.90;99.90;;;;;;5077183;28;20560;-73
2022/05/02 05:06:31;;;;;;;5.30;1.05;;;18.80;99.90;;;;;;5077207;28;20021;-73
2022/05/02 05:08:59;;;;;;;4.07;1.10;;;18.70;99.90;;;;;;5077043;28;20366;-75
2022/05/02 05:11:50;;;;;;;2.30;1.00;;;18.70;99.90;;;;;;5077106;28;20484;-74
2022/05/02 05:17:53;;;;;;;4.32;0.95;;;18.50;99.90;;;;;;5076857;28;20499;-74
2022/05/02 05:20:27;;;;;;;7.85;1.17;;;18.40;99.90;;;;;;5077320;28;20017;-74
2022/05/02 05:23:25;;;;;;;6.63;1.73;;;18.30;99.90;;;;;;5076731;28;20032;-74
2022/05/02 05:26:08;;;;;;;7.65;1.33;;;18.20;99.90;;;;;;5077008;28;20381;-74
2022/05/02 05:29:16;;;;;;;7.82;1.40;;;18.10;99.90;;;;;;5077021;28;20462;-74
2022/05/02 05:31:52;;;;;;;5.43;0.90;;;18.00;99.90;;;;;;5076604;28;20111;-73
2022/05/02 05:34:58;;;;;;;2.92;1.10;;;18.00;99.90;;;;;;5076079;28;20386;-73
2022/05/02 05:37:54;;;;;;;12.20;2.03;;;17.90;99.90;;;;;;5070716;28;20040;-73
2022/05/02 05:40:48;;;;;;;4.22;1.70;;;18.00;99.90;;;;;;5076752;28;20024;-74
2022/05/02 05:43:31;;;;;;;2.70;1.27;;;17.90;99.90;;;;;;5075017;28;20489;-73
2022/05/02 05:46:15;;;;;;;3.90;1.08;;;17.90;99.90;;;;;;5076323;28;20501;-73
2022/05/02 05:48:47;;;;;;;2.75;1.20;;;17.90;99.90;;;;;;5076224;28;20107;-74
2022/05/02 05:51:34;;;;;;;4.60;1.45;;;17.90;99.90;;;;;;5076212;28;20039;-73
2022/05/02 05:54:20;;;;;;;3.58;1.48;;;18.00;99.90;;;;;;5076293;28;20044;-73
2022/05/02 05:57:05;;;;;;;5.95;1.70;;;17.90;99.90;;;;;;5076065;28;20025;-73
2022/05/02 06:00:02;;;;;;;4.28;1.08;;;18.00;99.90;;;;;;5076135;28;20044;-73
2022/05/02 06:02:51;;;;;;;5.22;1.60;;;18.10;99.90;;;;;;5074702;28;20048;-74
2022/05/02 06:05:19;;;;;;;5.95;1.30;;;18.00;99.90;;;;;;5076140;28;20017;-74
2022/05/02 06:07:48;;;;;;;3.13;1.25;;;18.00;99.90;;;;;;5075731;28;20074;-73
2022/05/02 06:10:17;;;;;;;4.65;1.52;;;18.10;99.90;;;;;;5075764;28;20498;-73
2022/05/02 06:12:46;;;;;;;3.72;1.38;;;18.00;99.90;;;;;;5075747;28;20107;-73
2022/05/02 06:20:53;;;;;;;5.93;1.42;;;18.10;99.90;;;;;;5076080;28;20389;-73
2022/05/02 06:23:21;;;;;;;4.45;1.20;;;18.10;99.90;;;;;;5075688;28;20028;-73
2022/05/02 06:25:55;;;;;;;3.42;1.38;;;18.00;99.90;;;;;;5075547;28;20052;-73
2022/05/02 06:28:27;;;;;;;6.80;1.67;;;18.00;99.90;;;;;;5075541;28;20103;-73
2022/05/02 06:31:00;;;;;;;4.25;1.30;;;18.00;99.90;;;;;;5075533;28;20025;-73
2022/05/02 06:33:29;;;;;;;2.65;1.13;;;17.90;99.90;;;;;;5075373;28;20016;-73
2022/05/02 06:36:32;;;;;;;6.40;1.13;;;17.90;99.90;;;;;;5075204;28;20041;-73
2022/05/02 06:39:24;;;;;;;2.95;1.50;;;17.80;99.90;;;;;;5075257;28;20016;-73
2022/05/02 06:42:13;;;;;;;7.68;0.90;;;17.80;99.90;;;;;;5075271;28;20024;-73
2022/05/02 06:45:01;;;;;;;3.50;1.50;;;17.80;99.90;;;;;;5075299;28;20433;-73
2022/05/02 06:47:54;;;;;;;4.35;1.23;;;17.70;99.90;;;;;;5075252;28;20021;-73
2022/05/02 06:50:25;;;;;;;6.82;1.10;;;17.60;99.90;;;;;;5075134;28;20103;-74
2022/05/02 06:53:22;;;;;;;7.97;1.70;;;17.60;99.90;;;;;;5075028;28;20051;-73
2022/05/02 06:56:06;;;;;;;6.85;1.77;;;17.50;99.90;;;;;;5074913;28;20036;-75
2022/05/02 06:58:45;;;;;;;10.52;1.42;;;17.50;99.90;;;;;;5074801;28;20025;-73
2022/05/02 07:01:40;;;;;;;4.30;1.33;;;17.50;99.90;;;;;;5074836;28;20377;-73
2022/05/02 07:04:25;;;;;;;9.20;1.60;;;17.40;99.90;;;;;;5074914;28;20493;-73
2022/05/02 07:07:23;;;;;;;5.63;1.52;;;17.40;99.90;;;;;;5075318;28;20539;-73
2022/05/02 07:10:17;;;;;;;8.68;1.50;;;17.40;99.90;;;;;;5074955;28;20024;-73
2022/05/02 07:13:29;;;;;;;2.50;1.30;;;17.40;99.90;;;;;;5075168;28;20512;-73
2022/05/02 07:16:23;;;;;;;8.85;1.13;;;17.40;99.90;;;;;;5063076;28;20045;-73
2022/05/02 07:19:30;;;;;;;4.57;1.40;;;17.30;99.90;;;;;;5072972;28;20033;-74
2022/05/02 07:22:09;;;;;;;2.38;1.35;;;17.30;99.90;;;;;;5074501;28;20500;-74
2022/05/02 07:24:47;;;;;;;4.18;1.13;;;17.20;99.90;;;;;;5074492;28;20504;-73
2022/05/02 07:27:23;;;;;;;6.28;1.67;;;17.10;99.90;;;;;;5073065;28;20036;-73
2022/05/02 07:30:01;;;;;;;6.03;1.92;;;17.10;99.90;;;;;;5074135;28;20100;-74
2022/05/02 07:32:29;;;;;;;7.72;1.60;;;17.00;99.90;;;;;;5074264;28;20369;-77
2022/05/02 07:35:00;;;;;;;4.75;0.82;;;17.00;99.90;;;;;;5073748;28;20481;-74
2022/05/02 07:37:32;;;;;;;11.15;1.45;;;16.90;99.90;;;;;;5074296;28;20116;-75
2022/05/02 07:40:01;;;;;;;6.93;1.77;;;16.90;99.90;;;;;;5074122;28;20021;-77
2022/05/02 07:42:31;;;;;;;4.80;1.25;;;16.80;99.90;;;;;;5073299;28;20097;-75
2022/05/02 07:45:02;;;;;;;3.15;0.93;;;16.80;99.90;;;;;;5074164;28;20017;-75
2022/05/02 07:47:34;;;;;;;6.10;1.42;;;16.70;99.90;;;;;;5073974;28;20067;-75
2022/05/02 07:50:03;;;;;;;3.67;1.00;;;16.70;99.90;;;;;;5073920;28;20485;-74
2022/05/02 07:52:34;;;;;;;4.65;1.17;;;16.60;99.90;;;;;;5073986;28;20120;-77
2022/05/02 07:55:03;;;;;;;5.22;1.42;;;16.60;99.90;;;;;;5073639;28;20028;-75
2022/05/02 07:57:37;;;;;;;2.38;1.15;;;16.60;99.90;;;;;;5073824;28;20028;-75
2022/05/02 08:00:10;;;;;;;2.75;1.02;;;16.60;99.90;;;;;;5073908;28;20021;-75
2022/05/02 08:02:38;;;;;;;3.58;1.42;;;16.50;99.90;;;;;;5073789;28;20029;-74
2022/05/02 08:05:07;;;;;;;12.57;1.23;;;16.50;99.90;;;;;;5073668;28;20045;-75
2022/05/02 08:07:35;;;;;;;3.38;1.15;;;16.50;99.90;;;;;;5073580;28;20031;-74
2022/05/02 08:10:22;;;;;;;6.13;1.50;;;16.60;99.90;;;;;;5073600;28;20501;-74
2022/05/02 08:13:22;;;;;;;6.30;1.05;;;16.60;99.90;;;;;;5073670;28;20028;-74
2022/05/02 08:16:05;;;;;;;4.95;1.80;;;16.60;99.90;;;;;;5065916;28;20447;-74
2022/05/02 08:18:50;;;;;;;8.13;1.58;;;16.50;99.90;;;;;;5073626;28;20029;-74
2022/05/02 08:21:22;;;;;;;6.47;1.17;;;16.40;99.90;;;;;;5073968;28;20017;-77
2022/05/02 08:27:27;;;;;;;6.70;1.00;;;16.40;99.90;;;;;;5073467;28;20055;-77
2022/05/02 08:30:06;;;;;;;6.47;1.60;;;16.40;99.90;;;;;;5073880;28;20024;-77
2022/05/02 08:32:57;;;;;;;3.75;1.63;;;16.30;99.90;;;;;;5073596;28;20021;-78
2022/05/02 08:35:57;;;;;;;5.32;1.42;;;16.30;99.90;;;;;;5072944;28;20084;-77
2022/05/02 08:38:37;;;;;;;4.38;1.63;;;16.30;99.90;;;;;;5073254;28;20417;-78
2022/05/02 08:41:28;;;;;;;6.05;1.58;;;16.20;99.90;;;;;;5073704;28;20544;-77
2022/05/02 08:44:26;;;;;;;5.05;1.13;;;16.20;99.90;;;;;;5073610;28;20024;-78
2022/05/02 08:47:24;;;;;;;5.05;1.00;;;16.10;99.90;;;;;;5073973;28;20108;-77
2022/05/02 08:50:06;;;;;;;2.45;0.90;;;16.10;99.90;;;;;;5073613;28;20020;-77
2022/05/02 08:52:45;;;;;;;4.95;1.30;;;16.10;99.90;;;;;;5073311;28;20016;-77
2022/05/02 08:55:13;;;;;;;3.20;0.95;;;16.00;99.90;;;;;;5073248;28;20108;-77
2022/05/02 08:58:10;;;;;;;4.68;1.15;;;16.00;99.90;;;;;;5073212;28;20021;-77
2022/05/02 09:00:51;;;;;;;3.75;1.10;;;15.90;99.90;;;;;;5073543;28;20104;-77
2022/05/02 09:03:45;;;;;;;4.57;1.13;;;15.90;99.90;;;;;;5073538;28;20017;-76
2022/05/02 09:06:50;;;;;;;5.47;1.45;;;15.90;99.90;;;;;;5073551;28;20099;-78
2022/05/02 09:09:48;;;;;;;5.80;1.50;;;15.80;99.90;;;;;;5073375;28;20074;-77
2022/05/02 09:12:53;;;;;;;2.90;1.00;;;15.80;99.90;;;;;;5073120;28;20381;-78
2022/05/02 09:15:41;;;;;;;2.70;0.90;;;15.70;99.90;;;;;;5072976;28;20039;-77
2022/05/02 09:18:18;;;;;;;3.35;0.80;;;15.70;99.90;;;;;;5073121;28;20074;-77
2022/05/02 09:21:11;;;;;;;3.08;0.80;;;15.70;99.90;;;;;;5073667;28;20028;-76
2022/05/02 09:24:13;;;;;;;3.75;1.42;;;15.70;99.90;;;;;;5057061;28;20068;-77
2022/05/02 09:27:01;;;;;;;3.13;1.17;;;15.70;99.90;;;;;;5073261;28;20354;-76
2022/05/02 09:29:50;;;;;;;2.85;1.05;;;15.60;99.90;;;;;;5072976;28;20026;-76
2022/05/02 09:32:56;;;;;;;6.13;1.25;;;15.60;99.90;;;;;;5073140;28;20020;-76
2022/05/02 09:35:42;;;;;;;4.85;0.90;;;15.60;99.90;;;;;;5072732;28;20401;-76
2022/05/02 09:38:30;;;;;;;4.35;1.25;;;15.60;99.90;;;;;;5074060;28;20119;-76
2022/05/02 09:41:17;;;;;;;5.60;1.05;;;15.60;99.90;;;;;;5076021;28;20032;-76
2022/05/02 09:50:33;;;;;;;4.03;1.15;;;15.50;99.90;;;;;;5076605;28;20046;-76
2022/05/02 09:53:33;;;;;;;7.00;1.38;;;15.50;99.90;;;;;;5076760;28;20021;-77
2022/05/02 09:56:38;;;;;;;8.05;1.90;;;15.50;99.90;;;;;;5076079;28;20036;-77
2022/05/02 09:59:23;;;;;;;5.38;1.50;;;15.40;99.90;;;;;;5076589;28;20048;-77
2022/05/02 10:02:05;;;;;;;3.85;1.38;;;15.40;99.90;;;;;;5076927;28;20032;-77
2022/05/02 10:04:54;;;;;;;7.78;1.27;;;15.40;99.90;;;;;;5076191;28;20028;-77
2022/05/02 10:07:25;;;;;;;2.65;1.25;;;15.30;99.90;;;;;;5076017;28;20541;-77
2022/05/02 10:09:58;;;;;;;4.05;1.15;;;15.30;99.90;;;;;;5075466;28;20027;-77
2022/05/02 10:12:51;;;;;;;4.95;1.20;;;15.30;99.90;;;;;;5075468;28;20016;-77
2022/05/02 10:15:29;;;;;;;3.63;1.02;;;15.30;99.90;;;;;;5074531;28;20064;-77
2022/05/02 10:18:15;;;;;;;7.07;1.50;;;15.30;99.90;;;;;;5075265;28;20421;-77
2022/05/02 10:20:42;;;;;;;7.93;1.05;;;15.20;99.90;;;;;;5073767;28;20086;-77
2022/05/02 10:23:26;;;;;;;3.20;0.90;;;15.20;99.90;;;;;;5075401;28;20021;-77
2022/05/02 10:26:14;;;;;;;3.85;0.80;;;15.20;99.90;;;;;;5074908;28;20142;-77
2022/05/02 10:29:06;;;;;;;3.47;0.75;;;15.20;99.90;;;;;;5073147;28;20055;-77
2022/05/02 10:31:35;;;;;;;8.65;1.23;;;15.20;99.90;;;;;;5070809;28;20671;-77
2022/05/02 10:34:05;;;;;;;5.22;0.77;;;15.20;99.90;;;;;;5074833;28;20056;-76
2022/05/02 10:36:41;;;;;;;3.00;0.95;;;15.20;99.90;;;;;;5075536;28;20043;-77
2022/05/02 10:39:47;;;;;;;2.85;0.80;;;15.20;99.90;;;;;;5075316;28;20066;-76
2022/05/02 10:42:19;;;;;;;3.60;1.10;;;15.20;99.90;;;;;;5074363;28;20028;-78
2022/05/02 10:45:06;;;;;;;1.80;0.77;;;15.20;99.90;;;;;;5075390;28;20039;-77
2022/05/02 10:47:51;;;;;;;2.00;0.75;;;15.20;99.90;;;;;;5075280;28;20052;-77
2022/05/02 10:50:28;;;;;;;3.77;1.00;;;15.20;99.90;;;;;;5075214;28;20025;-78
2022/05/02 10:53:10;;;;;;;1.48;0.52;;;15.20;99.90;;;;;;5075314;28;20633;-76
2022/05/02 10:56:05;;;;;;;4.47;1.30;;;15.20;99.90;;;;;;5074731;28;20044;-77
2022/05/02 10:58:37;;;;;;;7.28;1.42;;;15.20;99.90;;;;;;5075151;28;20024;-77
2022/05/02 11:01:07;;;;;;;5.35;1.35;;;15.20;99.90;;;;;;5075371;28;20016;-78
2022/05/02 11:03:35;;;;;;;5.90;1.00;;;15.20;99.90;;;;;;5075075;28;20020;-77
2022/05/02 11:06:36;;;;;;;5.38;1.00;;;15.20;99.90;;;;;;5074765;28;20041;-78
2022/05/02 11:09:06;;;;;;;2.85;1.00;;;15.20;99.90;;;;;;5073573;28;20107;-78
2022/05/02 11:11:49;;;;;;;2.88;0.88;;;15.20;99.90;;;;;;5075057;28;20082;-77
2022/05/02 11:14:35;;;;;;;2.05;0.85;;;15.20;99.90;;;;;;5075974;28;20039;-77
2022/05/02 11:17:26;;;;;;;4.05;0.60;;;15.20;99.90;;;;;;5075394;28;20036;-78
2022/05/02 11:23:34;;;;;;;5.82;1.20;;;15.10;99.90;;;;;;5079860;28;20039;-76
2022/05/02 11:26:17;;;;;;;4.22;1.20;;;15.10;99.90;;;;;;5083065;28;20033;-80
2022/05/02 11:29:11;;;;;;;4.65;1.33;;;15.20;99.90;;;;;;5078635;28;20028;-77
2022/05/02 11:31:45;;;;;;;4.07;1.48;;;15.20;99.90;;;;;;5079479;28;20024;-79
2022/05/02 11:34:53;;;;;;;6.65;1.30;;;15.10;99.90;;;;;;5078680;28;20040;-79
2022/05/02 11:38:01;;;;;;;5.07;1.42;;;15.10;99.90;;;;;;5078472;28;20107;-78
2022/05/02 11:40:36;;;;;;;4.15;1.58;;;15.10;99.90;;;;;;5073750;28;20035;-76
2022/05/02 11:43:04;;;;;;;3.45;1.00;;;15.10;99.90;;;;;;5071512;28;20050;-77
2022/05/02 11:46:05;;;;;;;3.92;1.38;;;15.10;99.90;;;;;;5075928;28;20096;-78
2022/05/02 11:48:38;;;;;;;5.30;0.93;;;15.10;99.90;;;;;;5059614;28;20481;-77
2022/05/02 11:51:17;;;;;;;4.15;0.88;;;15.10;99.90;;;;;;5078276;28;20111;-78
2022/05/02 11:53:53;;;;;;;2.75;1.35;;;15.10;99.90;;;;;;5073248;28;20533;-78
2022/05/02 11:56:30;;;;;;;2.83;0.98;;;15.10;99.90;;;;;;5074317;28;20393;-78
2022/05/02 11:59:05;;;;;;;4.60;1.75;;;15.10;99.90;;;;;;5075610;28;20020;-78
2022/05/02 12:01:39;;;;;;;4.65;1.13;;;15.10;99.90;;;;;;5075194;28;20449;-77
2022/05/02 12:04:08;;;;;;;3.30;0.93;;;15.10;99.90;;;;;;5074683;28;20017;-78
2022/05/02 12:06:47;;;;;;;5.70;0.85;;;15.10;99.90;;;;;;5073598;28;20029;-79
2022/05/02 12:09:25;;;;;;;5.45;0.82;;;15.10;99.90;;;;;;5074314;28;20028;-76
2022/05/02 12:11:58;;;;;;;5.68;0.80;;;15.10;99.90;;;;;;5074645;28;20038;-78
2022/05/02 12:14:26;;;;;;;4.72;1.55;;;15.10;99.90;;;;;;5074775;28;20066;-78
2022/05/02 12:17:23;;;;;;;2.13;0.70;;;15.10;99.90;;;;;;5073713;28;20433;-77
2022/05/02 12:19:51;;;;;;;6.20;1.00;;;15.10;99.90;;;;;;5065443;28;20062;-77
2022/05/02 12:22:24;;;;;;;6.97;1.30;;;15.10;99.90;;;;;;5071627;28;20024;-79
2022/05/02 12:24:54;;;;;;;1.42;0.73;;;15.10;99.90;;;;;;5074193;28;20024;-78
2022/05/02 12:27:23;;;;;;;2.22;1.02;;;15.10;99.90;;;;;;5073848;28;20056;-79
2022/05/02 12:30:01;;;;;;;2.85;1.00;;;15.10;99.90;;;;;;5074545;28;20035;-77
2022/05/02 12:32:32;;;;;;;3.15;0.98;;;15.10;99.90;;;;;;5075832;28;20028;-77
2022/05/02 12:35:06;;;;;;;4.63;1.05;;;15.10;99.90;;;;;;5072827;28;20044;-78
2022/05/02 12:37:35;;;;;;;5.88;1.45;;;15.10;99.90;;;;;;5073376;28;20124;-78
2022/05/02 12:40:14;;;;;;;6.75;1.50;;;15.10;99.90;;;;;;5073887;28;20821;-78
2022/05/02 12:42:49;;;;;;;6.18;1.08;;;15.00;99.90;;;;;;5074187;28;20021;-78
2022/05/02 12:45:18;;;;;;;;;;;15.00;99.90;;;;;;5074185;28;20024;-78
2022/05/02 12:47:57;;;;;;;4.45;0.70;;;15.00;99.90;;;;;;5073682;28;19915;-78
2022/05/02 12:50:28;;;;;;;2.33;0.80;;;15.00;99.90;;;;;;5073760;28;20063;-76
2022/05/02 12:53:00;;;;;;;3.97;1.50;;;15.00;99.90;;;;;;5067522;28;20078;-77
2022/05/02 12:55:38;;;;;;;1.95;1.02;;;15.00;99.90;;;;;;5079841;28;20103;-78
2022/05/02 13:00:57;;;;;;;1.98;0.70;;;15.00;99.90;;;;;;5082495;28;20050;-77
2022/05/02 13:03:27;;;;;;;2.28;1.02;;;15.00;99.90;;;;;;5077892;28;20452;-77
2022/05/02 13:06:13;;;;;;;3.30;0.80;;;15.00;99.90;;;;;;5072791;28;20420;-77
2022/05/02 13:08:44;;;;;;;;;;;15.00;99.90;;;;;;5068627;28;20032;-75
2022/05/02 13:11:20;;;;;;;3.58;0.90;;;15.00;99.90;;;;;;5071660;28;19904;-77
2022/05/02 13:13:53;;;;;;;5.55;1.08;;;14.90;99.90;;;;;;5077514;28;20350;-78
2022/05/02 13:16:32;;;;;;;2.85;0.77;;;14.90;99.90;;;;;;5079027;28;20104;-78
2022/05/02 13:19:06;;;;;;;3.83;0.88;;;14.90;99.90;;;;;;5076010;28;20016;-76
2022/05/02 13:21:34;;;;;;;1.90;0.70;;;14.90;99.90;;;;;;5076001;28;20107;-77
2022/05/02 13:24:11;;;;;;;2.97;1.10;;;14.80;99.90;;;;;;5077644;28;20088;-77
2022/05/02 13:27:21;;;;;;;6.68;1.15;;;14.80;99.90;;;;;;5084799;28;20023;-78
2022/05/02 13:30:21;;;;;;;3.13;1.00;;;14.80;99.90;;;;;;5085960;28;20020;-76
2022/05/02 13:33:11;;;;;;;3.40;1.25;;;14.80;99.90;;;;;;5072590;28;20039;-78
2022/05/02 13:35:41;;;;;;;4.93;0.82;;;14.80;99.90;;;;;;5086094;28;20055;-75
2022/05/02 13:38:19;;;;;;;2.15;0.90;;;14.80;99.90;;;;;;5080169;28;20028;-78
2022/05/02 13:40:59;;;;;;;5.53;1.30;;;14.70;99.90;;;;;;5075133;28;20484;-76
2022/05/02 13:43:37;;;;;;;6.18;1.13;;;14.70;99.90;;;;;;5075603;28;20373;-78
2022/05/02 13:46:20;;;;;;;8.80;1.52;;;14.60;99.90;;;;;;5077453;28;20024;-78
2022/05/02 13:49:18;;;;;;;3.42;1.10;;;14.70;99.90;;;;;;5075202;28;20760;-78
2022/05/02 13:52:08;;;;;;;5.00;1.42;;;14.60;99.90;;;;;;5074355;28;20492;-77
2022/05/02 13:54:41;;;;;;;4.97;0.80;;;14.60;99.90;;;;;;5075172;28;20036;-78
2022/05/02 13:57:34;;;;;;;4.00;1.38;;;14.60;99.90;;;;;;5075767;28;20056;-77
2022/05/02 14:03:31;;;;;;;4.05;1.20;;;14.50;99.90;;;;;;5061037;28;20059;-76
2022/05/02 14:06:00;;;;;;;4.53;1.60;;;14.50;99.90;;;;;;5072903;28;20021;-76
2022/05/02 14:08:39;;;;;;;5.35;1.23;;;14.50;99.90;;;;;;5075517;28;20025;-76